Time;durP1;ratioP1;P1;durP2;ratioP2;P2;SDS_P1;SDS_P2;PMS_P1;PMS_P2;Temp;Humidity;BMP_temperature;BMP_pressure;BME280_temperature;BME280_humidity;BME280_pressure;Samples;Min_cycle;Max_cycle;Signal;HPM_P1;HPM_P2
2021/05/21 00:04:16;;;;;;;5.47;2.75;;;7.30;96.80;;;;;;21156585;28;20322;-46
2021/05/21 00:14:18;;;;;;;3.20;2.25;;;7.30;97.60;;;;;;21154105;28;20028;-46
2021/05/21 00:24:20;;;;;;;4.75;2.60;;;7.10;97.20;;;;;;21120233;28;20039;-47
2021/05/21 00:34:22;;;;;;;6.18;3.33;;;6.90;97.30;;;;;;21153937;28;20071;-46
2021/05/21 00:44:24;;;;;;;5.78;3.20;;;7.00;96.30;;;;;;21153794;28;20043;-52
2021/05/21 00:54:26;;;;;;;6.20;3.33;;;7.20;96.10;;;;;;21168143;28;20392;-46
2021/05/21 01:04:27;;;;;;;5.80;3.17;;;6.90;96.40;;;;;;21151186;28;20078;-46
2021/05/21 01:14:29;;;;;;;5.32;3.20;;;6.50;97.80;;;;;;21149985;28;20039;-46
2021/05/21 01:24:31;;;;;;;5.68;2.80;;;6.60;96.90;;;;;;21167867;28;20075;-46
2021/05/21 01:34:34;;;;;;;5.82;2.65;;;6.60;96.80;;;;;;21167050;28;20465;-46
2021/05/21 01:44:36;;;;;;;6.22;2.30;;;6.40;97.60;;;;;;21126740;28;20052;-46
2021/05/21 01:54:38;;;;;;;2.97;2.03;;;6.20;97.20;;;;;;21045966;28;20145;-46
2021/05/21 02:04:41;;;;;;;5.93;1.92;;;6.20;98.30;;;;;;21078889;28;20032;-46
2021/05/21 02:14:43;;;;;;;3.92;2.25;;;6.10;97.90;;;;;;21126571;28;20392;-48
2021/05/21 02:24:45;;;;;;;3.20;2.00;;;6.00;98.80;;;;;;21161665;28;20066;-53
2021/05/21 02:34:47;;;;;;;2.90;1.75;;;5.70;99.70;;;;;;21161351;28;20440;-49
2021/05/21 02:44:49;;;;;;;2.45;1.70;;;5.90;98.80;;;;;;21160700;28;20066;-49
2021/05/21 02:54:51;;;;;;;2.92;2.00;;;6.00;97.50;;;;;;21161593;28;20050;-49
2021/05/21 03:04:53;;;;;;;4.43;2.80;;;6.20;97.10;;;;;;21160088;28;20479;-49
2021/05/21 03:14:55;;;;;;;5.60;3.10;;;6.40;94.50;;;;;;21158072;28;20035;-49
2021/05/21 03:25:01;;;;;;;4.15;2.95;;;6.70;94.50;;;;;;21157362;28;20100;-48
2021/05/21 03:35:05;;;;;;;4.47;2.88;;;6.50;96.80;;;;;;21158316;28;20048;-48
2021/05/21 03:45:08;;;;;;;4.70;2.72;;;6.50;96.40;;;;;;21156643;28;20396;-50
2021/05/21 03:55:11;;;;;;;6.38;2.60;;;6.60;97.10;;;;;;21137139;28;20105;-50
2021/05/21 04:05:13;;;;;;;3.65;2.50;;;6.20;99.40;;;;;;21155487;28;20565;-48
2021/05/21 04:15:14;;;;;;;5.38;2.58;;;6.00;99.90;;;;;;21155008;28;20101;-50
2021/05/21 04:25:16;;;;;;;4.55;2.33;;;5.90;99.90;;;;;;21162854;28;20048;-55
2021/05/21 04:35:19;;;;;;;5.32;2.15;;;6.10;99.90;;;;;;21170841;28;20048;-50
2021/05/21 04:45:21;;;;;;;5.30;2.10;;;6.40;99.90;;;;;;21171161;28;20027;-49
2021/05/21 04:55:24;;;;;;;4.57;2.30;;;6.60;99.90;;;;;;21169276;28;20044;-50
2021/05/21 05:05:25;;;;;;;3.83;2.13;;;6.80;99.90;;;;;;21169113;28;20749;-50
2021/05/21 05:15:27;;;;;;;3.17;1.90;;;7.10;99.90;;;;;;21167604;28;20035;-49
2021/05/21 05:25:33;;;;;;;5.18;2.58;;;7.90;99.90;;;;;;21149003;28;20438;-49
2021/05/21 05:35:34;;;;;;;3.35;2.30;;;8.40;99.80;;;;;;21167855;27;20382;-51
2021/05/21 05:45:36;;;;;;;3.15;2.30;;;8.90;97.60;;;;;;21166460;28;20048;-52
2021/05/21 05:55:40;;;;;;;4.72;2.78;;;9.40;96.70;;;;;;21164800;28;20118;-55
2021/05/21 06:05:42;;;;;;;3.50;2.60;;;9.60;93.50;;;;;;21163570;28;20043;-52
2021/05/21 06:15:44;;;;;;;2.67;2.00;;;10.30;92.60;;;;;;21164356;28;20374;-51
2021/05/21 06:35:49;;;;;;;4.07;2.20;;;11.80;94.80;;;;;;21161549;28;20205;-50
2021/05/21 06:45:51;;;;;;;5.95;3.20;;;12.20;92.50;;;;;;21160078;28;20497;-55
2021/05/21 06:55:53;;;;;;;5.47;3.30;;;12.60;83.90;;;;;;21159488;28;20405;-50
2021/05/21 07:05:56;;;;;;;6.03;3.20;;;12.90;90.80;;;;;;21158880;28;20097;-50
2021/05/21 07:15:59;;;;;;;6.88;3.70;;;13.40;87.10;;;;;;21158940;28;20038;-46
2021/05/21 07:26:02;;;;;;;6.35;4.07;;;13.80;90.60;;;;;;21157673;28;20040;-48
2021/05/21 07:36:05;;;;;;;6.25;4.15;;;14.10;90.00;;;;;;21156449;28;20052;-47
2021/05/21 07:46:08;;;;;;;7.95;4.00;;;14.30;89.50;;;;;;21155908;28;20070;-47
2021/05/21 07:56:10;;;;;;;7.53;3.97;;;14.40;87.00;;;;;;21154926;28;20508;-50
2021/05/21 08:06:13;;;;;;;5.85;3.70;;;14.80;86.30;;;;;;21155708;28;20089;-48
2021/05/21 08:16:15;;;;;;;6.30;4.40;;;15.40;86.00;;;;;;21154404;28;20362;-47
2021/05/21 08:26:20;;;;;;;6.03;4.45;;;15.90;83.30;;;;;;21112315;28;20513;-47
2021/05/21 08:36:22;;;;;;;5.95;3.90;;;16.80;80.50;;;;;;21052946;28;20036;-48
2021/05/21 08:46:26;;;;;;;5.88;4.10;;;17.50;75.90;;;;;;21070653;28;20101;-48
2021/05/21 08:56:28;;;;;;;7.88;5.35;;;18.00;80.70;;;;;;21069233;28;20193;-48
2021/05/21 09:06:30;;;;;;;7.30;5.10;;;18.50;80.70;;;;;;21070314;28;20095;-54
2021/05/21 09:16:38;;;;;;;8.25;4.57;;;18.40;75.80;;;;;;21104016;28;20065;-50
2021/05/21 09:26:42;;;;;;;6.75;4.75;;;18.00;84.10;;;;;;21167574;28;20043;-52
2021/05/21 09:36:44;;;;;;;6.05;3.63;;;18.30;86.30;;;;;;21166506;28;20047;-50
2021/05/21 09:46:48;;;;;;;5.18;3.35;;;18.80;80.20;;;;;;21165958;28;20035;-50
2021/05/21 09:57:04;;;;;;;6.03;2.60;;;19.20;80.40;;;;;;21165512;28;20065;-49
2021/05/21 10:07:06;;;;;;;3.08;2.00;;;19.50;78.30;;;;;;21164196;28;20093;-47
2021/05/21 10:17:10;;;;;;;2.78;1.80;;;19.40;75.70;;;;;;21163462;28;20089;-47
2021/05/21 10:27:19;;;;;;;4.13;2.63;;;19.20;74.70;;;;;;21161050;28;20048;-47
2021/05/21 10:37:37;;;;;;;7.03;3.20;;;18.70;79.30;;;;;;21161170;28;20051;-47
2021/05/21 10:48:07;;;;;;;6.82;3.28;;;18.80;79.20;;;;;;21160815;28;20052;-47
2021/05/21 10:58:18;;;;;;;4.20;2.08;;;18.80;82.60;;;;;;21159922;28;20044;-46
2021/05/21 11:08:20;;;;;;;4.80;2.70;;;18.80;80.10;;;;;;21140668;28;20035;-47
2021/05/21 11:18:23;;;;;;;8.57;3.47;;;19.30;77.00;;;;;;21123798;28;20051;-48
2021/05/21 11:28:26;;;;;;;5.13;3.70;;;19.20;79.80;;;;;;21053281;28;20097;-47
2021/05/21 11:38:27;;;;;;;4.97;3.72;;;19.40;82.00;;;;;;21055841;28;20032;-46
2021/05/21 11:48:37;;;;;;;6.55;4.10;;;20.20;80.50;;;;;;21072280;28;20397;-46
2021/05/21 11:58:39;;;;;;;5.55;3.83;;;19.80;82.30;;;;;;21071850;28;20382;-46
2021/05/21 12:08:48;;;;;;;6.05;3.63;;;19.50;80.50;;;;;;21054003;28;20047;-47
2021/05/21 12:18:50;;;;;;;3.92;2.60;;;19.30;82.20;;;;;;21109537;28;20047;-46
2021/05/21 12:28:56;;;;;;;3.85;2.60;;;18.90;85.10;;;;;;21156245;28;20549;-48
2021/05/21 12:39:01;;;;;;;3.75;2.40;;;19.10;83.80;;;;;;21136131;28;20105;-47
2021/05/21 12:49:08;;;;;;;2.72;1.83;;;18.90;78.70;;;;;;21168014;28;20040;-49
2021/05/21 12:59:11;;;;;;;3.08;2.45;;;18.70;79.90;;;;;;21169702;28;20055;-50
2021/05/21 13:09:13;;;;;;;3.28;2.50;;;18.60;77.10;;;;;;21167793;28;20446;-49
2021/05/21 13:19:23;;;;;;;5.55;2.65;;;17.80;77.40;;;;;;21126035;28;20039;-49
2021/05/21 13:29:25;;;;;;;4.13;2.22;;;17.50;77.80;;;;;;21083143;28;20039;-49
2021/05/21 13:39:27;;;;;;;3.15;1.30;;;17.20;82.00;;;;;;21064209;28;20052;-49
2021/05/21 13:49:31;;;;;;;2.53;1.70;;;17.20;74.00;;;;;;21161511;28;20035;-49
2021/05/21 13:59:33;;;;;;;3.30;1.33;;;17.30;78.10;;;;;;21166013;28;20040;-50
2021/05/21 14:09:35;;;;;;;6.13;2.75;;;18.30;73.40;;;;;;21145917;28;20357;-49
2021/05/21 14:19:36;;;;;;;5.88;3.33;;;19.00;76.40;;;;;;21206987;27;20035;-46
2021/05/21 14:29:38;;;;;;;7.40;4.55;;;18.00;77.30;;;;;;21176074;27;20378;-46
2021/05/21 14:39:40;;;;;;;6.63;4.10;;;17.10;81.60;;;;;;21161962;28;20060;-46
2021/05/21 14:49:42;;;;;;;6.20;3.88;;;15.80;82.70;;;;;;21143079;28;20097;-49
2021/05/21 14:59:43;;;;;;;9.40;4.72;;;15.10;88.40;;;;;;21141702;28;20480;-50
2021/05/21 15:09:49;;;;;;;5.65;4.32;;;15.40;87.20;;;;;;21160119;28;20043;-49
2021/05/21 15:30:12;;;;;;;6.18;4.18;;;14.00;88.70;;;;;;21157793;28;20453;-48
2021/05/21 15:40:14;;;;;;;7.10;4.53;;;13.70;91.60;;;;;;21156833;28;20554;-48
2021/05/21 15:50:20;;;;;;;7.97;4.40;;;13.70;91.80;;;;;;21158304;28;20144;-49
2021/05/21 16:00:22;;;;;;;7.22;3.85;;;13.80;92.00;;;;;;21157138;28;20036;-49
2021/05/21 16:10:28;;;;;;;11.35;3.90;;;14.20;91.70;;;;;;21155385;28;20070;-48
2021/05/21 16:20:30;;;;;;;6.88;4.20;;;14.60;90.30;;;;;;21160945;28;20108;-48
2021/05/21 16:30:31;;;;;;;8.60;4.05;;;14.30;91.10;;;;;;21093444;28;20466;-46
2021/05/21 16:40:33;;;;;;;7.80;3.92;;;14.30;90.60;;;;;;21086225;28;20052;-46
2021/05/21 16:50:37;;;;;;;3.97;2.42;;;14.00;92.00;;;;;;21068890;28;20476;-48
2021/05/21 17:00:38;;;;;;;4.32;1.23;;;13.60;91.80;;;;;;21085072;28;20485;-48
2021/05/21 17:10:40;;;;;;;4.57;1.35;;;13.10;92.80;;;;;;21084319;28;20098;-48
2021/05/21 18:11:45;;;;;;;1.88;0.60;;;11.20;98.30;;;;;;21143022;28;20101;-49
2021/05/21 18:42:53;;;;;;;3.80;0.70;;;10.30;98.00;;;;;;21160488;28;20040;-48
2021/05/21 18:53:24;;;;;;;2.22;0.65;;;9.80;99.20;;;;;;21160039;28;20827;-48
2021/05/21 19:03:28;;;;;;;2.67;0.63;;;9.40;99.10;;;;;;21161679;28;20443;-48
2021/05/21 19:23:45;;;;;;;2.75;0.57;;;8.80;99.70;;;;;;21137386;28;20551;-48
2021/05/21 20:14:22;;;;;;;1.73;0.52;;;8.90;98.20;;;;;;21072700;28;20040;-48
2021/05/21 20:24:27;;;;;;;5.63;0.70;;;8.80;99.90;;;;;;21153190;28;20043;-48
2021/05/21 21:16:07;;;;;;;4.25;2.08;;;8.40;99.90;;;;;;21169446;28;20089;-48
2021/05/21 21:47:22;;;;;;;2.67;1.23;;;8.00;99.90;;;;;;21066857;28;20044;-49
2021/05/21 22:07:55;;;;;;;4.70;1.50;;;7.70;99.90;;;;;;21080583;28;20394;-48
2021/05/21 22:28:17;;;;;;;3.67;1.20;;;7.60;99.90;;;;;;21104728;28;20375;-48
2021/05/21 22:38:18;;;;;;;4.18;1.33;;;7.50;99.90;;;;;;21077863;28;20105;-52
2021/05/21 22:48:20;;;;;;;2.13;1.30;;;7.50;99.90;;;;;;21077764;28;20078;-48
2021/05/21 22:58:22;;;;;;;4.18;1.30;;;7.40;99.90;;;;;;21076480;28;20040;-48
2021/05/21 23:08:24;;;;;;;4.85;1.35;;;7.40;99.90;;;;;;21075393;28;20048;-49
2021/05/21 23:18:26;;;;;;;2.75;1.30;;;7.60;99.90;;;;;;21086246;28;20036;-48
2021/05/21 23:28:27;;;;;;;2.97;1.00;;;7.60;99.90;;;;;;21140174;28;20461;-48
2021/05/21 23:38:29;;;;;;;2.47;1.10;;;7.50;99.90;;;;;;21139739;28;20385;-48
2021/05/21 23:48:31;;;;;;;2.80;1.00;;;7.40;99.90;;;;;;21153107;28;20052;-50
2021/05/21 23:58:32;;;;;;;2.13;1.05;;;7.40;99.90;;;;;;21155821;28;20043;-49
